Terminal Aerodrome Forecast
Issued by NWS

Home | Current Version | Previous Version | Graphics & Text | Print | Product List | Glossary On
Versions: 1 2 3 4 5 6 7 8 9 10 11 12 13 14 15 16 17 18 19 20 21
821
FTUS43 KBIS 222338
TAFJMS
TAF
KJMS 222338Z 2300/2324 11006KT P6SM VCSH BKN035
     FM230200 09005KT 3SM -SN OVC025
     FM230500 35005KT 1 1/2SM -SN OVC025
     FM230800 33008KT 3SM -SN OVC045
     FM231100 32008KT P6SM OVC070=

USA.gov is the U.S. government's official web portal to all federal, state and local government web resources and services.